Schedule Details


Flight Number: CTN413
Departure: Frankfurt/main (EDDF) at 12:05
Arrival: Kastela (LDSP) at 13:45
Route: NOMBO UZ738 MUN UM867 VAROB DCT GIMIX DCT SABAD L862 GISER UL862 PALEZ L862 OKLAX

Weather Information
EDDF 290050Z 22006KT 9999 -RA FEW008 BKN015 02/02 Q1002 NOSIG
LDSP 290030Z AUTO 34005KT 310V030 CAVOK 12/10 Q1008
Schedule Frequency

Route Map